Aeroporto :







RITROVATECI SU...

 
LOGIN :

Iscrizione | Disclaimer

   EN    FR    IT 

 









Sommario :    VFR   VFR Marginale   IFR   IFR Intensivo   IFR Molto Intensivo
Visibilità : 
Base nubi : 
>= 8 km
>= 3000ft
5 / 8 km
1000 / 3000 ft
1500m / 5 km
500 / 1000 ft
800 / 1500m
200 / 500 ft
< 800m
< 200 ft
Simboli :   Temporali  Nebbia  Neve Forte  Precipitazioni Forti  Vento > 20 kt







- Altitudine del aeroporto : 83 ft


KBHB - Hancock County-Bar Harbor

ULTIMO METAR :
  • 162356Z AUTO 30003KT 10SM BKN060 14/11 A2998 RMK AO2 SLP153 T01440106 10172 20144 53006

METARs OBSOLETI :
  • 162256Z AUTO 28003KT 10SM OVC065 15/11 A2997 RMK AO2 SLP150 T01500111
  • 162156Z AUTO 30003KT 10SM OVC055 16/11 A2996 RMK AO2 SLP147 T01610106

TAF KBHB
Valido dal 17 a 00 ore il 18 a 00 ore UTC


162320Z 1700/1724 31005KT P6SM OVC050
FM170900 33005KT P6SM SCT015 OVC050
FM171600 01008KT P6SM BKN030
FM172000 02006KT P6SM BKN050
Nessun NOTAM noto per questo aeroporto.



MetMap, La meteo Aeronautica in un colpo d'occhio ! - Copyright ORBIFLY Dicembre 2007 - Disclaimer

ORBIFLY MET'MAP TEAM :

Programmazione e sviluppo : Alexandra Zaïnal
Concezione e sviluppo : Baudouin d'Aumeries
Co-Programmazione e sviluppo : Marc-Olivier Méhu
Supporto tecnico e logistico : Manuel Goepfert
Aiuto per la traduzione : Arnaldo La Scala

Contatto : metmap@orbifly.com




FONTI E CREDITI :

   NOAA